createdAt,value
2022-12-29T14:46:44.695Z,1.65
2022-12-29T14:49:16.504Z,1.10
2022-12-29T14:51:43.472Z,2.05
2022-12-29T14:54:28.416Z,1.88
2022-12-29T14:56:57.978Z,2.38
2022-12-29T14:59:24.795Z,1.90
2022-12-29T15:01:53.193Z,2.20
2022-12-29T15:04:21.714Z,2.08
2022-12-29T15:06:49.289Z,2.50
2022-12-29T15:09:24.456Z,2.40
2022-12-29T15:11:52.658Z,2.10
2022-12-29T15:14:28.033Z,2.83
2022-12-29T15:16:54.374Z,2.88
2022-12-29T15:19:24.551Z,3.08
2022-12-29T15:21:51.012Z,2.35
2022-12-29T15:24:17.712Z,2.08
2022-12-29T15:26:46.306Z,2.33
2022-12-29T15:29:39.063Z,3.50
2022-12-29T15:32:31.839Z,2.78
2022-12-29T15:35:02.171Z,2.67
2022-12-29T15:37:32.864Z,2.60
2022-12-29T15:42:28.997Z,3.17
2022-12-29T15:45:09.308Z,3.30
2022-12-29T15:47:36.867Z,3.40
2022-12-29T15:50:23.463Z,3.45
2022-12-29T15:52:49.963Z,2.30
2022-12-29T15:55:21.334Z,2.25
2022-12-29T15:57:47.578Z,2.85
2022-12-29T16:00:24.080Z,3.40
2022-12-29T16:02:50.506Z,3.00
2022-12-29T16:05:18.572Z,3.03
2022-12-29T16:07:59.662Z,3.42
2022-12-29T16:10:34.394Z,2.92
2022-12-29T16:13:05.296Z,2.80
2022-12-29T16:15:31.612Z,2.63
2022-12-29T16:17:58.437Z,2.70
2022-12-29T16:20:26.055Z,2.25
2022-12-29T16:23:01.334Z,2.40
2022-12-29T16:25:32.427Z,2.03
2022-12-29T16:28:02.175Z,3.20
2022-12-29T16:30:33.978Z,2.07
2022-12-29T16:33:02.433Z,2.78
2022-12-29T16:35:30.984Z,2.78
2022-12-29T16:38:16.887Z,2.75
2022-12-29T16:40:55.375Z,2.25
2022-12-29T16:43:23.309Z,1.67
2022-12-29T16:45:49.638Z,1.67
2022-12-29T16:48:23.559Z,2.05
2022-12-29T16:50:50.611Z,2.38
2022-12-29T16:53:25.641Z,2.45
2022-12-29T16:55:55.568Z,2.50
2022-12-29T16:58:23.889Z,2.58
2022-12-29T17:00:50.382Z,1.80
2022-12-29T17:03:16.911Z,1.90
2022-12-29T17:05:43.200Z,2.30
2022-12-29T17:08:23.864Z,2.70
2022-12-29T17:13:35.821Z,2.08
2022-12-29T17:16:02.156Z,2.50
2022-12-29T17:18:28.426Z,3.88
2022-12-29T17:20:54.655Z,1.80
2022-12-29T17:23:26.398Z,2.00
2022-12-29T17:25:54.635Z,2.85
2022-12-29T17:28:22.465Z,3.67
2022-12-29T17:30:49.485Z,5.47
2022-12-29T17:33:17.488Z,3.05
2022-12-29T17:35:44.221Z,2.65
2022-12-29T17:38:20.650Z,2.95
2022-12-29T17:40:47.099Z,3.25
2022-12-29T17:43:14.306Z,2.60
2022-12-29T17:45:41.395Z,3.35
2022-12-29T17:48:14.593Z,2.85
2022-12-29T17:50:41.148Z,4.53
2022-12-29T17:53:11.388Z,5.60
2022-12-29T17:55:38.801Z,3.17
2022-12-29T17:58:25.435Z,2.50
2022-12-29T18:00:53.173Z,2.60
2022-12-29T18:03:30.574Z,1.95
2022-12-29T18:05:57.484Z,2.42
2022-12-29T18:08:23.835Z,2.65
2022-12-29T18:10:53.928Z,2.90
2022-12-29T18:13:20.381Z,3.30
2022-12-29T18:15:47.085Z,3.15
2022-12-29T18:18:14.656Z,3.08
2022-12-29T18:20:43.047Z,3.55
2022-12-29T18:23:19.829Z,2.72
2022-12-29T18:25:49.234Z,2.17
2022-12-29T18:28:15.570Z,3.33
2022-12-29T18:30:41.844Z,2.88
2022-12-29T18:33:17.704Z,2.80
2022-12-29T18:35:58.082Z,2.85
2022-12-29T18:38:24.337Z,2.50
2022-12-29T18:40:50.839Z,2.85
2022-12-29T18:43:18.093Z,3.05
2022-12-29T18:45:48.202Z,3.40
2022-12-29T18:48:14.876Z,2.85
2022-12-29T18:50:41.517Z,3.65
2022-12-29T18:53:15.027Z,5.28
2022-12-29T18:55:41.266Z,3.58
2022-12-29T18:58:07.925Z,3.55
2022-12-29T19:00:34.412Z,3.67
2022-12-29T19:03:00.812Z,2.65
2022-12-29T19:05:31.929Z,3.10
2022-12-29T19:07:58.170Z,3.65
2022-12-29T19:10:25.251Z,3.90
2022-12-29T19:12:51.991Z,3.22
2022-12-29T19:15:18.284Z,4.35
2022-12-29T19:17:44.539Z,3.30
2022-12-29T19:20:21.672Z,3.40
2022-12-29T19:22:47.983Z,4.07
2022-12-29T19:25:14.268Z,4.47
2022-12-29T19:27:40.495Z,4.88
2022-12-29T19:30:07.071Z,4.70
2022-12-29T19:32:33.331Z,4.25
2022-12-29T19:34:59.647Z,5.15
2022-12-29T19:37:25.935Z,3.45
2022-12-29T19:39:53.068Z,4.65
2022-12-29T19:42:19.297Z,4.45
2022-12-29T19:44:45.608Z,3.55
2022-12-29T19:47:13.838Z,4.30
2022-12-29T19:49:40.253Z,3.17
2022-12-29T19:52:06.495Z,4.90
2022-12-29T19:54:32.823Z,3.25
2022-12-29T19:56:59.269Z,3.88
2022-12-29T19:59:25.576Z,4.07
2022-12-29T20:01:51.988Z,3.42
2022-12-29T20:04:18.600Z,3.67
2022-12-29T20:06:44.901Z,4.53
2022-12-29T20:09:11.179Z,4.47
2022-12-29T20:11:37.532Z,4.20
2022-12-29T20:14:03.831Z,4.30
2022-12-29T20:16:30.311Z,4.20
2022-12-29T20:18:56.608Z,3.88
2022-12-29T20:21:24.174Z,4.38
2022-12-29T20:23:51.190Z,4.13
2022-12-29T20:26:24.016Z,4.07
2022-12-29T20:28:50.821Z,7.00
2022-12-29T20:31:19.781Z,6.93
2022-12-29T20:33:46.499Z,4.20
2022-12-29T20:36:17.683Z,4.55
2022-12-29T20:38:45.455Z,5.32
2022-12-29T20:41:13.244Z,3.92
2022-12-29T20:43:39.892Z,4.68
2022-12-29T20:46:06.812Z,4.85
2022-12-29T20:48:33.120Z,3.97
2022-12-29T20:51:00.417Z,4.63
2022-12-29T20:53:27.463Z,4.82
2022-12-29T20:55:54.063Z,4.53
2022-12-29T20:58:24.396Z,4.13
2022-12-29T21:00:51.318Z,4.72
2022-12-29T21:03:17.764Z,4.18
2022-12-29T21:05:44.122Z,4.55
2022-12-29T21:08:11.543Z,4.53
2022-12-29T21:10:37.853Z,5.80
2022-12-29T21:13:04.108Z,4.07
2022-12-29T21:15:31.792Z,4.90
2022-12-29T21:17:58.107Z,4.07
2022-12-29T21:20:31.634Z,4.03
2022-12-29T21:22:59.995Z,4.50
2022-12-29T21:25:26.520Z,3.80
2022-12-29T21:27:52.988Z,5.25
2022-12-29T21:30:19.220Z,4.93
2022-12-29T21:32:45.453Z,4.32
2022-12-29T21:35:11.738Z,4.00
2022-12-29T21:37:38.019Z,3.75
2022-12-29T21:40:04.838Z,4.22
2022-12-29T21:42:31.155Z,4.68
2022-12-29T21:45:20.432Z,3.70
2022-12-29T21:48:05.671Z,3.60
2022-12-29T21:50:31.989Z,3.95
2022-12-29T21:52:58.351Z,3.50
2022-12-29T21:55:24.651Z,3.85
2022-12-29T21:58:09.382Z,3.88
2022-12-29T22:00:54.219Z,3.65
2022-12-29T22:03:38.928Z,3.28
2022-12-29T22:06:28.220Z,3.58
2022-12-29T22:09:13.120Z,4.18
2022-12-29T22:11:57.856Z,3.90
2022-12-29T22:14:24.101Z,3.35
2022-12-29T22:16:50.420Z,4.28
